sensor_id;sensor_type;location;lat;lon;timestamp;temperature;humidity
23283;DHT22;11810;51.178;3.878;2023-03-01T00:00:40;-1.40;99.90
23283;DHT22;11810;51.178;3.878;2023-03-01T00:03:07;-1.40;99.90
23283;DHT22;11810;51.178;3.878;2023-03-01T00:05:32;-1.30;99.90
23283;DHT22;11810;51.178;3.878;2023-03-01T00:07:58;-1.20;99.90
23283;DHT22;11810;51.178;3.878;2023-03-01T00:10:24;-1.10;99.90
23283;DHT22;11810;51.178;3.878;2023-03-01T00:12:51;-1.10;99.90
23283;DHT22;11810;51.178;3.878;2023-03-01T00:15:17;-1.10;99.90
23283;DHT22;11810;51.178;3.878;2023-03-01T00:17:43;-1.20;99.90
23283;DHT22;11810;51.178;3.878;2023-03-01T00:20:09;-1.20;99.90
23283;DHT22;11810;51.178;3.878;2023-03-01T00:22:36;-1.10;99.90
23283;DHT22;11810;51.178;3.878;2023-03-01T00:25:03;-1.00;99.90
23283;DHT22;11810;51.178;3.878;2023-03-01T00:27:29;-1.10;99.90
23283;DHT22;11810;51.178;3.878;2023-03-01T00:29:55;-1.20;99.90
23283;DHT22;11810;51.178;3.878;2023-03-01T00:33:59;-1.10;99.90
23283;DHT22;11810;51.178;3.878;2023-03-01T00:36:34;-1.10;99.90
23283;DHT22;11810;51.178;3.878;2023-03-01T00:39:00;-1.00;99.90
23283;DHT22;11810;51.178;3.878;2023-03-01T00:41:57;-1.10;99.90
23283;DHT22;11810;51.178;3.878;2023-03-01T00:44:23;-1.20;99.90
23283;DHT22;11810;51.178;3.878;2023-03-01T00:46:56;-1.20;99.90
23283;DHT22;11810;51.178;3.878;2023-03-01T00:49:22;-1.10;99.90
23283;DHT22;11810;51.178;3.878;2023-03-01T00:51:49;-1.00;99.90
23283;DHT22;11810;51.178;3.878;2023-03-01T00:54:15;-1.00;99.90
23283;DHT22;11810;51.178;3.878;2023-03-01T00:56:41;-1.00;99.90
23283;DHT22;11810;51.178;3.878;2023-03-01T00:59:07;-1.00;99.90
23283;DHT22;11810;51.178;3.878;2023-03-01T01:01:58;-1.00;99.90
23283;DHT22;11810;51.178;3.878;2023-03-01T01:05:58;-1.00;99.90
23283;DHT22;11810;51.178;3.878;2023-03-01T01:08:24;-0.90;99.90
23283;DHT22;11810;51.178;3.878;2023-03-01T01:10:50;-1.00;99.90
23283;DHT22;11810;51.178;3.878;2023-03-01T01:13:51;-0.90;99.90
23283;DHT22;11810;51.178;3.878;2023-03-01T01:16:18;-0.90;99.90
23283;DHT22;11810;51.178;3.878;2023-03-01T01:18:44;-1.00;99.90
23283;DHT22;11810;51.178;3.878;2023-03-01T01:21:13;-0.80;99.90
23283;DHT22;11810;51.178;3.878;2023-03-01T01:23:40;-0.80;99.90
23283;DHT22;11810;51.178;3.878;2023-03-01T01:26:08;-0.80;99.90
23283;DHT22;11810;51.178;3.878;2023-03-01T01:28:35;-0.80;99.90
23283;DHT22;11810;51.178;3.878;2023-03-01T01:31:01;-0.90;99.90
23283;DHT22;11810;51.178;3.878;2023-03-01T01:34:05;-0.90;99.90
23283;DHT22;11810;51.178;3.878;2023-03-01T01:36:32;-1.00;99.90
23283;DHT22;11810;51.178;3.878;2023-03-01T01:38:58;-1.10;99.90
23283;DHT22;11810;51.178;3.878;2023-03-01T01:41:26;-1.10;99.90
23283;DHT22;11810;51.178;3.878;2023-03-01T01:48:49;-1.00;99.90
23283;DHT22;11810;51.178;3.878;2023-03-01T01:53:10;-1.20;99.90
23283;DHT22;11810;51.178;3.878;2023-03-01T01:55:42;-1.30;99.90
23283;DHT22;11810;51.178;3.878;2023-03-01T01:58:10;-1.30;99.90
23283;DHT22;11810;51.178;3.878;2023-03-01T02:00:38;-1.40;99.90
23283;DHT22;11810;51.178;3.878;2023-03-01T02:03:14;-1.50;99.90
23283;DHT22;11810;51.178;3.878;2023-03-01T02:07:20;-1.40;99.90
23283;DHT22;11810;51.178;3.878;2023-03-01T02:09:48;-1.50;99.90
23283;DHT22;11810;51.178;3.878;2023-03-01T02:12:17;-1.40;99.90
23283;DHT22;11810;51.178;3.878;2023-03-01T02:14:44;-1.50;99.90
23283;DHT22;11810;51.178;3.878;2023-03-01T02:17:11;-1.50;99.90
23283;DHT22;11810;51.178;3.878;2023-03-01T02:22:25;-1.50;99.90
23283;DHT22;11810;51.178;3.878;2023-03-01T02:25:07;-1.50;99.90
23283;DHT22;11810;51.178;3.878;2023-03-01T02:31:13;-1.50;99.90
23283;DHT22;11810;51.178;3.878;2023-03-01T02:36:15;-1.40;99.90
23283;DHT22;11810;51.178;3.878;2023-03-01T02:39:18;-1.40;99.90
23283;DHT22;11810;51.178;3.878;2023-03-01T02:41:50;-1.50;99.90
23283;DHT22;11810;51.178;3.878;2023-03-01T02:45:07;-1.50;99.90
23283;DHT22;11810;51.178;3.878;2023-03-01T02:49:30;-1.50;99.90
23283;DHT22;11810;51.178;3.878;2023-03-01T02:56:13;-1.40;99.90
23283;DHT22;11810;51.178;3.878;2023-03-01T02:59:12;-1.50;99.90
23283;DHT22;11810;51.178;3.878;2023-03-01T03:01:39;-1.50;99.90
23283;DHT22;11810;51.178;3.878;2023-03-01T03:04:10;-1.40;99.90
23283;DHT22;11810;51.178;3.878;2023-03-01T03:11:15;-1.20;99.90
23283;DHT22;11810;51.178;3.878;2023-03-01T03:13:41;-1.30;99.90
23283;DHT22;11810;51.178;3.878;2023-03-01T03:16:14;-1.40;99.90
23283;DHT22;11810;51.178;3.878;2023-03-01T03:18:40;-1.30;99.90
23283;DHT22;11810;51.178;3.878;2023-03-01T03:21:11;-1.30;99.90
23283;DHT22;11810;51.178;3.878;2023-03-01T03:23:38;-1.30;99.90
23283;DHT22;11810;51.178;3.878;2023-03-01T03:26:16;-1.30;99.90
23283;DHT22;11810;51.178;3.878;2023-03-01T03:29:17;-1.20;99.90
23283;DHT22;11810;51.178;3.878;2023-03-01T03:31:43;-1.10;99.90
23283;DHT22;11810;51.178;3.878;2023-03-01T03:34:09;-1.10;99.90
23283;DHT22;11810;51.178;3.878;2023-03-01T03:36:43;-1.20;99.90
23283;DHT22;11810;51.178;3.878;2023-03-01T03:39:08;-1.20;99.90
23283;DHT22;11810;51.178;3.878;2023-03-01T03:41:35;-1.20;99.90
23283;DHT22;11810;51.178;3.878;2023-03-01T03:44:01;-1.10;99.90
23283;DHT22;11810;51.178;3.878;2023-03-01T03:46:27;-1.10;99.90
23283;DHT22;11810;51.178;3.878;2023-03-01T03:48:53;-1.00;99.90
23283;DHT22;11810;51.178;3.878;2023-03-01T03:51:18;-1.00;99.90
23283;DHT22;11810;51.178;3.878;2023-03-01T03:53:45;-0.90;99.90
23283;DHT22;11810;51.178;3.878;2023-03-01T03:57:19;-1.00;99.90
23283;DHT22;11810;51.178;3.878;2023-03-01T03:59:46;-1.00;99.90
23283;DHT22;11810;51.178;3.878;2023-03-01T04:02:12;-1.00;99.90
23283;DHT22;11810;51.178;3.878;2023-03-01T04:04:38;-1.00;99.90
23283;DHT22;11810;51.178;3.878;2023-03-01T04:07:04;-0.90;99.90
23283;DHT22;11810;51.178;3.878;2023-03-01T04:09:30;-0.90;99.90
23283;DHT22;11810;51.178;3.878;2023-03-01T04:12:21;-0.90;99.90
23283;DHT22;11810;51.178;3.878;2023-03-01T04:14:48;-1.20;99.90
23283;DHT22;11810;51.178;3.878;2023-03-01T04:17:14;-1.10;99.90
23283;DHT22;11810;51.178;3.878;2023-03-01T04:19:40;-1.20;99.90
23283;DHT22;11810;51.178;3.878;2023-03-01T04:22:09;-1.20;99.90
23283;DHT22;11810;51.178;3.878;2023-03-01T04:24:36;-1.30;99.90
23283;DHT22;11810;51.178;3.878;2023-03-01T04:27:03;-1.50;99.90
23283;DHT22;11810;51.178;3.878;2023-03-01T04:31:23;-1.60;99.90
23283;DHT22;11810;51.178;3.878;2023-03-01T04:38:26;-1.90;99.90
23283;DHT22;11810;51.178;3.878;2023-03-01T04:40:52;-1.90;99.90
23283;DHT22;11810;51.178;3.878;2023-03-01T04:43:18;-1.90;99.90
23283;DHT22;11810;51.178;3.878;2023-03-01T04:48:25;-1.80;99.90
23283;DHT22;11810;51.178;3.878;2023-03-01T04:55:17;-2.10;99.90
23283;DHT22;11810;51.178;3.878;2023-03-01T04:57:43;-2.10;99.90
23283;DHT22;11810;51.178;3.878;2023-03-01T05:05:30;-1.80;99.90
23283;DHT22;11810;51.178;3.878;2023-03-01T05:08:01;-1.80;99.90
23283;DHT22;11810;51.178;3.878;2023-03-01T05:11:28;-1.60;99.90
23283;DHT22;11810;51.178;3.878;2023-03-01T05:14:28;-1.60;99.90
23283;DHT22;11810;51.178;3.878;2023-03-01T05:16:54;-1.60;99.90
23283;DHT22;11810;51.178;3.878;2023-03-01T05:19:20;-1.70;99.90
23283;DHT22;11810;51.178;3.878;2023-03-01T05:21:48;-1.70;99.90
23283;DHT22;11810;51.178;3.878;2023-03-01T05:26:30;-1.80;99.90
23283;DHT22;11810;51.178;3.878;2023-03-01T05:30:34;-1.80;99.90
23283;DHT22;11810;51.178;3.878;2023-03-01T05:33:01;-1.90;99.90
23283;DHT22;11810;51.178;3.878;2023-03-01T05:35:27;-1.90;99.90
23283;DHT22;11810;51.178;3.878;2023-03-01T05:37:54;-1.90;99.90
23283;DHT22;11810;51.178;3.878;2023-03-01T05:40:22;-2.00;99.90
23283;DHT22;11810;51.178;3.878;2023-03-01T05:42:55;-2.00;99.90
23283;DHT22;11810;51.178;3.878;2023-03-01T05:45:23;-2.00;99.90
23283;DHT22;11810;51.178;3.878;2023-03-01T05:47:49;-2.00;99.90
23283;DHT22;11810;51.178;3.878;2023-03-01T05:50:28;-2.00;99.90
23283;DHT22;11810;51.178;3.878;2023-03-01T05:57:33;-1.90;99.90
23283;DHT22;11810;51.178;3.878;2023-03-01T06:01:35;-2.20;99.90
23283;DHT22;11810;51.178;3.878;2023-03-01T06:04:02;-2.20;99.90
23283;DHT22;11810;51.178;3.878;2023-03-01T06:08:17;-2.30;99.90
23283;DHT22;11810;51.178;3.878;2023-03-01T06:10:46;-2.30;99.90
23283;DHT22;11810;51.178;3.878;2023-03-01T06:13:13;-2.30;99.90
23283;DHT22;11810;51.178;3.878;2023-03-01T06:17:38;-2.30;99.90
23283;DHT22;11810;51.178;3.878;2023-03-01T06:20:10;-2.10;99.90
23283;DHT22;11810;51.178;3.878;2023-03-01T06:22:36;-2.00;99.90
23283;DHT22;11810;51.178;3.878;2023-03-01T06:25:03;-2.20;99.90
23283;DHT22;11810;51.178;3.878;2023-03-01T06:29:38;-2.30;99.90
23283;DHT22;11810;51.178;3.878;2023-03-01T06:33:38;-2.20;99.90
23283;DHT22;11810;51.178;3.878;2023-03-01T06:38:14;-2.30;99.90
23283;DHT22;11810;51.178;3.878;2023-03-01T06:40:42;-2.20;99.90
23283;DHT22;11810;51.178;3.878;2023-03-01T06:43:08;-2.00;99.90
23283;DHT22;11810;51.178;3.878;2023-03-01T06:45:34;-2.00;99.90
23283;DHT22;11810;51.178;3.878;2023-03-01T06:48:12;-1.80;99.90
23283;DHT22;11810;51.178;3.878;2023-03-01T06:50:38;-1.90;99.90
23283;DHT22;11810;51.178;3.878;2023-03-01T06:55:41;-2.00;99.90
23283;DHT22;11810;51.178;3.878;2023-03-01T06:58:08;-1.90;99.90
23283;DHT22;11810;51.178;3.878;2023-03-01T07:00:34;-1.90;99.90
23283;DHT22;11810;51.178;3.878;2023-03-01T07:03:41;-1.70;99.90
23283;DHT22;11810;51.178;3.878;2023-03-01T07:06:10;-1.50;99.90
23283;DHT22;11810;51.178;3.878;2023-03-01T07:08:35;-1.40;99.90
23283;DHT22;11810;51.178;3.878;2023-03-01T07:11:42;-1.40;99.90
23283;DHT22;11810;51.178;3.878;2023-03-01T07:14:08;-1.30;99.90
23283;DHT22;11810;51.178;3.878;2023-03-01T07:16:34;-1.20;99.90
23283;DHT22;11810;51.178;3.878;2023-03-01T07:19:00;-1.20;99.90
23283;DHT22;11810;51.178;3.878;2023-03-01T07:21:26;-0.90;99.90
23283;DHT22;11810;51.178;3.878;2023-03-01T07:23:52;0.00;99.90
23283;DHT22;11810;51.178;3.878;2023-03-01T07:26:17;0.90;99.90
23283;DHT22;11810;51.178;3.878;2023-03-01T07:28:43;1.50;99.90
23283;DHT22;11810;51.178;3.878;2023-03-01T07:31:09;1.60;99.90
23283;DHT22;11810;51.178;3.878;2023-03-01T07:33:35;1.60;99.90
23283;DHT22;11810;51.178;3.878;2023-03-01T07:37:47;2.50;99.90
23283;DHT22;11810;51.178;3.878;2023-03-01T07:40:13;3.40;99.90
23283;DHT22;11810;51.178;3.878;2023-03-01T07:42:39;4.40;99.90
23283;DHT22;11810;51.178;3.878;2023-03-01T07:45:06;4.80;99.90
23283;DHT22;11810;51.178;3.878;2023-03-01T07:47:32;5.60;99.90
23283;DHT22;11810;51.178;3.878;2023-03-01T07:49:58;6.00;99.90
23283;DHT22;11810;51.178;3.878;2023-03-01T07:52:24;6.40;99.90
23283;DHT22;11810;51.178;3.878;2023-03-01T07:54:50;6.30;99.90
23283;DHT22;11810;51.178;3.878;2023-03-01T07:57:16;7.00;99.90
23283;DHT22;11810;51.178;3.878;2023-03-01T07:59:42;7.40;99.90
23283;DHT22;11810;51.178;3.878;2023-03-01T08:02:09;7.40;99.90
23283;DHT22;11810;51.178;3.878;2023-03-01T08:04:35;7.80;99.90
23283;DHT22;11810;51.178;3.878;2023-03-01T08:07:03;7.90;99.90
23283;DHT22;11810;51.178;3.878;2023-03-01T08:09:29;7.50;99.90
23283;DHT22;11810;51.178;3.878;2023-03-01T08:11:57;7.70;99.90
23283;DHT22;11810;51.178;3.878;2023-03-01T08:14:25;7.60;99.90
23283;DHT22;11810;51.178;3.878;2023-03-01T08:16:51;7.20;99.90
23283;DHT22;11810;51.178;3.878;2023-03-01T08:19:17;7.60;99.90
23283;DHT22;11810;51.178;3.878;2023-03-01T08:21:43;7.90;99.90
23283;DHT22;11810;51.178;3.878;2023-03-01T08:24:09;8.60;99.90
23283;DHT22;11810;51.178;3.878;2023-03-01T08:26:38;8.30;99.90
23283;DHT22;11810;51.178;3.878;2023-03-01T08:29:03;7.80;99.90
23283;DHT22;11810;51.178;3.878;2023-03-01T08:31:33;8.00;99.90
23283;DHT22;11810;51.178;3.878;2023-03-01T08:34:04;8.10;99.90
23283;DHT22;11810;51.178;3.878;2023-03-01T08:36:33;8.40;99.90
23283;DHT22;11810;51.178;3.878;2023-03-01T08:39:00;8.20;99.90
23283;DHT22;11810;51.178;3.878;2023-03-01T08:41:27;7.90;99.90
23283;DHT22;11810;51.178;3.878;2023-03-01T08:43:53;7.60;99.90
23283;DHT22;11810;51.178;3.878;2023-03-01T08:46:27;6.80;99.90
23283;DHT22;11810;51.178;3.878;2023-03-01T08:48:53;6.40;99.90
23283;DHT22;11810;51.178;3.878;2023-03-01T08:51:20;6.20;99.90
23283;DHT22;11810;51.178;3.878;2023-03-01T08:53:46;6.20;99.90
23283;DHT22;11810;51.178;3.878;2023-03-01T08:56:13;6.80;99.90
23283;DHT22;11810;51.178;3.878;2023-03-01T08:58:39;7.20;99.90
23283;DHT22;11810;51.178;3.878;2023-03-01T09:01:10;7.20;99.90
23283;DHT22;11810;51.178;3.878;2023-03-01T09:03:37;7.30;99.90
23283;DHT22;11810;51.178;3.878;2023-03-01T09:06:05;8.20;99.90
23283;DHT22;11810;51.178;3.878;2023-03-01T09:08:43;9.10;99.90
23283;DHT22;11810;51.178;3.878;2023-03-01T09:11:11;9.70;99.90
23283;DHT22;11810;51.178;3.878;2023-03-01T09:13:38;9.90;99.90
23283;DHT22;11810;51.178;3.878;2023-03-01T09:16:06;10.70;99.90
23283;DHT22;11810;51.178;3.878;2023-03-01T09:18:33;11.70;99.90
23283;DHT22;11810;51.178;3.878;2023-03-01T09:21:26;12.70;99.90
23283;DHT22;11810;51.178;3.878;2023-03-01T09:23:52;12.70;99.90
23283;DHT22;11810;51.178;3.878;2023-03-01T09:26:19;12.50;99.90
23283;DHT22;11810;51.178;3.878;2023-03-01T09:28:48;13.10;99.90
23283;DHT22;11810;51.178;3.878;2023-03-01T09:31:14;12.60;99.90
23283;DHT22;11810;51.178;3.878;2023-03-01T09:33:41;12.80;99.90
23283;DHT22;11810;51.178;3.878;2023-03-01T09:36:12;12.40;99.90
23283;DHT22;11810;51.178;3.878;2023-03-01T09:38:38;12.80;99.90
23283;DHT22;11810;51.178;3.878;2023-03-01T09:46:53;13.70;98.60
23283;DHT22;11810;51.178;3.878;2023-03-01T09:49:22;13.90;96.20
23283;DHT22;11810;51.178;3.878;2023-03-01T09:53:01;13.80;97.00
23283;DHT22;11810;51.178;3.878;2023-03-01T09:55:16;14.50;94.80
23283;DHT22;11810;51.178;3.878;2023-03-01T09:57:53;14.00;93.60
23283;DHT22;11810;51.178;3.878;2023-03-01T10:00:37;14.20;93.80
23283;DHT22;11810;51.178;3.878;2023-03-01T10:03:15;13.90;92.40
23283;DHT22;11810;51.178;3.878;2023-03-01T10:05:50;14.30;91.90
23283;DHT22;11810;51.178;3.878;2023-03-01T10:11:23;13.60;92.40
23283;DHT22;11810;51.178;3.878;2023-03-01T10:16:43;13.80;91.10
23283;DHT22;11810;51.178;3.878;2023-03-01T10:19:21;14.00;92.40
23283;DHT22;11810;51.178;3.878;2023-03-01T10:21:49;14.30;91.10
23283;DHT22;11810;51.178;3.878;2023-03-01T10:24:18;14.40;90.30
23283;DHT22;11810;51.178;3.878;2023-03-01T10:27:03;14.30;88.30
23283;DHT22;11810;51.178;3.878;2023-03-01T10:29:35;14.40;88.30
23283;DHT22;11810;51.178;3.878;2023-03-01T10:32:04;14.10;90.50
23283;DHT22;11810;51.178;3.878;2023-03-01T10:34:35;13.50;89.70
23283;DHT22;11810;51.178;3.878;2023-03-01T10:37:18;13.50;90.50
23283;DHT22;11810;51.178;3.878;2023-03-01T10:40:09;13.30;91.70
23283;DHT22;11810;51.178;3.878;2023-03-01T10:43:05;12.60;93.50
23283;DHT22;11810;51.178;3.878;2023-03-01T10:50:29;13.00;94.70
23283;DHT22;11810;51.178;3.878;2023-03-01T10:53:01;13.60;91.80
23283;DHT22;11810;51.178;3.878;2023-03-01T11:00:55;14.60;90.30
23283;DHT22;11810;51.178;3.878;2023-03-01T11:03:27;15.20;88.90
23283;DHT22;11810;51.178;3.878;2023-03-01T11:05:57;15.30;87.30
23283;DHT22;11810;51.178;3.878;2023-03-01T11:08:31;15.40;84.60
23283;DHT22;11810;51.178;3.878;2023-03-01T11:14:05;15.50;84.40
23283;DHT22;11810;51.178;3.878;2023-03-01T11:16:37;15.50;81.90
23283;DHT22;11810;51.178;3.878;2023-03-01T11:21:54;15.50;82.50
23283;DHT22;11810;51.178;3.878;2023-03-01T11:24:27;15.70;82.80
23283;DHT22;11810;51.178;3.878;2023-03-01T11:26:55;15.80;82.70
23283;DHT22;11810;51.178;3.878;2023-03-01T11:29:32;16.30;82.00
23283;DHT22;11810;51.178;3.878;2023-03-01T11:32:02;15.60;77.70
23283;DHT22;11810;51.178;3.878;2023-03-01T11:37:40;14.70;78.40
23283;DHT22;11810;51.178;3.878;2023-03-01T11:40:32;14.60;81.20
23283;DHT22;11810;51.178;3.878;2023-03-01T11:45:58;15.60;80.40
23283;DHT22;11810;51.178;3.878;2023-03-01T11:51:11;15.70;77.10
23283;DHT22;11810;51.178;3.878;2023-03-01T11:54:05;16.00;78.50
23283;DHT22;11810;51.178;3.878;2023-03-01T11:56:40;15.60;77.70
23283;DHT22;11810;51.178;3.878;2023-03-01T12:16:49;16.20;76.90
23283;DHT22;11810;51.178;3.878;2023-03-01T12:19:08;16.10;75.40
23283;DHT22;11810;51.178;3.878;2023-03-01T12:22:03;15.80;76.80
23283;DHT22;11810;51.178;3.878;2023-03-01T12:30:58;15.60;77.20
23283;DHT22;11810;51.178;3.878;2023-03-01T12:33:54;15.90;77.20
23283;DHT22;11810;51.178;3.878;2023-03-01T12:36:50;16.20;77.60
23283;DHT22;11810;51.178;3.878;2023-03-01T12:49:58;16.10;78.10
23283;DHT22;11810;51.178;3.878;2023-03-01T12:52:45;16.40;76.90
23283;DHT22;11810;51.178;3.878;2023-03-01T12:58:12;15.90;76.30
23283;DHT22;11810;51.178;3.878;2023-03-01T13:09:43;14.80;77.30
23283;DHT22;11810;51.178;3.878;2023-03-01T13:12:50;14.80;79.40
23283;DHT22;11810;51.178;3.878;2023-03-01T13:31:06;13.30;81.00
23283;DHT22;11810;51.178;3.878;2023-03-01T13:36:02;13.50;82.10
23283;DHT22;11810;51.178;3.878;2023-03-01T13:41:17;13.20;84.70
23283;DHT22;11810;51.178;3.878;2023-03-01T13:46:44;12.40;85.30
23283;DHT22;11810;51.178;3.878;2023-03-01T13:49:22;12.20;88.20
23283;DHT22;11810;51.178;3.878;2023-03-01T13:51:50;12.00;89.70
23283;DHT22;11810;51.178;3.878;2023-03-01T13:54:29;11.70;90.60
23283;DHT22;11810;51.178;3.878;2023-03-01T13:56:56;11.10;93.00
23283;DHT22;11810;51.178;3.878;2023-03-01T13:59:23;10.80;92.60
23283;DHT22;11810;51.178;3.878;2023-03-01T14:01:59;10.60;94.20
23283;DHT22;11810;51.178;3.878;2023-03-01T14:04:26;10.40;95.80
23283;DHT22;11810;51.178;3.878;2023-03-01T14:07:21;10.70;96.40
23283;DHT22;11810;51.178;3.878;2023-03-01T14:09:51;11.00;94.70
23283;DHT22;11810;51.178;3.878;2023-03-01T14:12:43;11.10;95.40
23283;DHT22;11810;51.178;3.878;2023-03-01T14:15:35;11.20;94.30
23283;DHT22;11810;51.178;3.878;2023-03-01T14:21:08;11.40;94.50
23283;DHT22;11810;51.178;3.878;2023-03-01T14:23:34;11.20;94.00
23283;DHT22;11810;51.178;3.878;2023-03-01T14:26:02;11.00;94.90
23283;DHT22;11810;51.178;3.878;2023-03-01T14:28:30;10.40;95.80
23283;DHT22;11810;51.178;3.878;2023-03-01T14:31:00;10.40;98.10
23283;DHT22;11810;51.178;3.878;2023-03-01T14:33:32;10.00;97.90
23283;DHT22;11810;51.178;3.878;2023-03-01T14:36:09;9.90;99.20
23283;DHT22;11810;51.178;3.878;2023-03-01T14:38:43;10.00;99.30
23283;DHT22;11810;51.178;3.878;2023-03-01T14:41:17;10.10;99.90
23283;DHT22;11810;51.178;3.878;2023-03-01T14:44:06;10.10;99.40
23283;DHT22;11810;51.178;3.878;2023-03-01T14:46:36;10.10;99.20
23283;DHT22;11810;51.178;3.878;2023-03-01T14:49:09;10.40;98.50
23283;DHT22;11810;51.178;3.878;2023-03-01T14:51:38;10.80;97.60
23283;DHT22;11810;51.178;3.878;2023-03-01T14:56:47;10.90;96.40
23283;DHT22;11810;51.178;3.878;2023-03-01T14:59:13;10.80;96.00
23283;DHT22;11810;51.178;3.878;2023-03-01T15:01:41;10.30;98.20
23283;DHT22;11810;51.178;3.878;2023-03-01T15:04:11;10.40;97.60
23283;DHT22;11810;51.178;3.878;2023-03-01T15:06:38;10.70;97.40
23283;DHT22;11810;51.178;3.878;2023-03-01T15:09:04;10.90;96.20
23283;DHT22;11810;51.178;3.878;2023-03-01T15:11:32;10.80;96.10
23283;DHT22;11810;51.178;3.878;2023-03-01T15:13:59;10.90;95.40
23283;DHT22;11810;51.178;3.878;2023-03-01T15:16:31;10.50;96.40
23283;DHT22;11810;51.178;3.878;2023-03-01T15:19:04;10.80;96.20
23283;DHT22;11810;51.178;3.878;2023-03-01T15:21:38;10.90;97.20
23283;DHT22;11810;51.178;3.878;2023-03-01T15:26:43;10.60;95.90
23283;DHT22;11810;51.178;3.878;2023-03-01T15:29:22;10.20;96.60
23283;DHT22;11810;51.178;3.878;2023-03-01T15:32:03;10.20;97.20
23283;DHT22;11810;51.178;3.878;2023-03-01T15:34:35;10.20;97.10
23283;DHT22;11810;51.178;3.878;2023-03-01T15:40:02;10.50;96.90
23283;DHT22;11810;51.178;3.878;2023-03-01T15:50:26;10.50;97.30
23283;DHT22;11810;51.178;3.878;2023-03-01T15:52:53;10.50;97.10
23283;DHT22;11810;51.178;3.878;2023-03-01T15:57:49;10.60;97.10
23283;DHT22;11810;51.178;3.878;2023-03-01T16:00:16;10.70;96.70
23283;DHT22;11810;51.178;3.878;2023-03-01T16:02:43;10.40;97.60
23283;DHT22;11810;51.178;3.878;2023-03-01T16:05:22;10.10;98.00
23283;DHT22;11810;51.178;3.878;2023-03-01T16:07:49;10.00;97.30
23283;DHT22;11810;51.178;3.878;2023-03-01T16:10:15;9.40;98.90
23283;DHT22;11810;51.178;3.878;2023-03-01T16:12:42;9.00;99.90
23283;DHT22;11810;51.178;3.878;2023-03-01T16:15:23;8.70;99.90
23283;DHT22;11810;51.178;3.878;2023-03-01T16:17:49;8.50;99.90
23283;DHT22;11810;51.178;3.878;2023-03-01T16:20:16;8.30;99.90
23283;DHT22;11810;51.178;3.878;2023-03-01T16:22:43;8.10;99.90
23283;DHT22;11810;51.178;3.878;2023-03-01T16:25:10;7.80;99.90
23283;DHT22;11810;51.178;3.878;2023-03-01T16:27:37;7.60;99.90
23283;DHT22;11810;51.178;3.878;2023-03-01T16:30:05;7.70;99.90
23283;DHT22;11810;51.178;3.878;2023-03-01T16:32:31;7.60;99.90
23283;DHT22;11810;51.178;3.878;2023-03-01T16:34:57;7.40;99.90
23283;DHT22;11810;51.178;3.878;2023-03-01T16:37:23;7.30;99.90
23283;DHT22;11810;51.178;3.878;2023-03-01T16:39:49;7.00;99.90
23283;DHT22;11810;51.178;3.878;2023-03-01T16:42:19;7.00;99.90
23283;DHT22;11810;51.178;3.878;2023-03-01T16:44:45;6.70;99.90
23283;DHT22;11810;51.178;3.878;2023-03-01T16:47:11;6.90;99.90
23283;DHT22;11810;51.178;3.878;2023-03-01T16:49:37;6.80;99.90
23283;DHT22;11810;51.178;3.878;2023-03-01T16:52:03;6.70;99.90
23283;DHT22;11810;51.178;3.878;2023-03-01T16:54:28;6.60;99.90
23283;DHT22;11810;51.178;3.878;2023-03-01T16:56:54;6.40;99.90
23283;DHT22;11810;51.178;3.878;2023-03-01T16:59:20;6.50;99.90
23283;DHT22;11810;51.178;3.878;2023-03-01T17:01:46;6.40;99.90
23283;DHT22;11810;51.178;3.878;2023-03-01T17:04:13;6.30;99.90
23283;DHT22;11810;51.178;3.878;2023-03-01T17:06:39;6.20;99.90
23283;DHT22;11810;51.178;3.878;2023-03-01T17:09:05;6.10;99.90
23283;DHT22;11810;51.178;3.878;2023-03-01T17:11:31;5.90;99.90
23283;DHT22;11810;51.178;3.878;2023-03-01T17:13:56;5.80;99.90
23283;DHT22;11810;51.178;3.878;2023-03-01T17:16:22;5.80;99.90
23283;DHT22;11810;51.178;3.878;2023-03-01T17:18:49;5.80;99.90
23283;DHT22;11810;51.178;3.878;2023-03-01T17:21:15;5.50;99.90
23283;DHT22;11810;51.178;3.878;2023-03-01T17:24:51;5.40;99.90
23283;DHT22;11810;51.178;3.878;2023-03-01T17:27:17;5.20;99.90
23283;DHT22;11810;51.178;3.878;2023-03-01T17:29:43;5.10;99.90
23283;DHT22;11810;51.178;3.878;2023-03-01T17:32:10;5.10;99.90
23283;DHT22;11810;51.178;3.878;2023-03-01T17:34:36;5.10;99.90
23283;DHT22;11810;51.178;3.878;2023-03-01T17:37:02;5.10;99.90
23283;DHT22;11810;51.178;3.878;2023-03-01T17:39:28;5.00;99.90
23283;DHT22;11810;51.178;3.878;2023-03-01T17:42:01;4.80;99.90
23283;DHT22;11810;51.178;3.878;2023-03-01T17:47:54;4.60;99.90
23283;DHT22;11810;51.178;3.878;2023-03-01T17:50:20;4.60;99.90
23283;DHT22;11810;51.178;3.878;2023-03-01T17:52:46;4.50;99.90
23283;DHT22;11810;51.178;3.878;2023-03-01T17:55:12;4.40;99.90
23283;DHT22;11810;51.178;3.878;2023-03-01T17:57:39;4.30;99.90
23283;DHT22;11810;51.178;3.878;2023-03-01T18:00:06;4.30;99.90
23283;DHT22;11810;51.178;3.878;2023-03-01T18:02:32;4.20;99.90
23283;DHT22;11810;51.178;3.878;2023-03-01T18:04:58;4.20;99.90
23283;DHT22;11810;51.178;3.878;2023-03-01T18:07:28;4.10;99.90
23283;DHT22;11810;51.178;3.878;2023-03-01T18:09:54;4.00;99.90
23283;DHT22;11810;51.178;3.878;2023-03-01T18:12:21;3.80;99.90
23283;DHT22;11810;51.178;3.878;2023-03-01T18:14:48;3.70;99.90
23283;DHT22;11810;51.178;3.878;2023-03-01T18:17:19;3.60;99.90
23283;DHT22;11810;51.178;3.878;2023-03-01T18:19:45;3.60;99.90
23283;DHT22;11810;51.178;3.878;2023-03-01T18:22:12;3.60;99.90
23283;DHT22;11810;51.178;3.878;2023-03-01T18:24:39;3.50;99.90
23283;DHT22;11810;51.178;3.878;2023-03-01T18:27:05;3.50;99.90
23283;DHT22;11810;51.178;3.878;2023-03-01T18:29:31;3.40;99.90
23283;DHT22;11810;51.178;3.878;2023-03-01T18:32:59;3.40;99.90
23283;DHT22;11810;51.178;3.878;2023-03-01T18:35:25;3.30;99.90
23283;DHT22;11810;51.178;3.878;2023-03-01T18:37:51;3.40;99.90
23283;DHT22;11810;51.178;3.878;2023-03-01T18:40:17;3.20;99.90
23283;DHT22;11810;51.178;3.878;2023-03-01T18:42:43;3.20;99.90
23283;DHT22;11810;51.178;3.878;2023-03-01T18:45:09;3.20;99.90
23283;DHT22;11810;51.178;3.878;2023-03-01T18:47:35;3.30;99.90
23283;DHT22;11810;51.178;3.878;2023-03-01T18:50:01;3.10;99.90
23283;DHT22;11810;51.178;3.878;2023-03-01T18:52:27;3.00;99.90
23283;DHT22;11810;51.178;3.878;2023-03-01T18:54:53;2.90;99.90
23283;DHT22;11810;51.178;3.878;2023-03-01T18:57:19;2.80;99.90
23283;DHT22;11810;51.178;3.878;2023-03-01T18:59:45;2.70;99.90
23283;DHT22;11810;51.178;3.878;2023-03-01T19:02:11;2.70;99.90
23283;DHT22;11810;51.178;3.878;2023-03-01T19:04:40;2.60;99.90
23283;DHT22;11810;51.178;3.878;2023-03-01T19:07:06;2.50;99.90
23283;DHT22;11810;51.178;3.878;2023-03-01T19:09:33;2.50;99.90
23283;DHT22;11810;51.178;3.878;2023-03-01T19:11:59;2.50;99.90
23283;DHT22;11810;51.178;3.878;2023-03-01T19:15:04;2.40;99.90
23283;DHT22;11810;51.178;3.878;2023-03-01T19:17:30;2.30;99.90
23283;DHT22;11810;51.178;3.878;2023-03-01T19:21:22;2.10;99.90
23283;DHT22;11810;51.178;3.878;2023-03-01T19:23:49;2.10;99.90
23283;DHT22;11810;51.178;3.878;2023-03-01T19:26:18;2.00;99.90